Time;durP1;ratioP1;P1;durP2;ratioP2;P2;SDS_P1;SDS_P2;PMS_P1;PMS_P2;Temp;Humidity;BMP_temperature;BMP_pressure;BME280_temperature;BME280_humidity;BME280_pressure;Samples;Min_cycle;Max_cycle;Signal;HPM_P1;HPM_P2
2022/04/13 00:01:36;;;;;;;;;;;14.70;99.90;;;;;;5010511;28;19968;-65
2022/04/13 00:04:01;;;;;;;;;;;14.70;99.90;;;;;;5011586;28;20280;-66
2022/04/13 00:06:27;;;;;;;;;;;14.70;99.90;;;;;;5011690;28;20404;-64
2022/04/13 00:08:55;;;;;;;;;;;14.70;99.90;;;;;;5010557;28;19916;-65
2022/04/13 00:11:21;;;;;;;;;;;14.60;99.90;;;;;;5011332;28;19909;-65
2022/04/13 00:13:47;;;;;;;;;;;14.60;99.90;;;;;;5011473;28;19912;-66
2022/04/13 00:16:12;;;;;;;;;;;14.60;99.90;;;;;;5011698;28;19909;-66
2022/04/13 00:18:38;;;;;;;;;;;14.50;99.90;;;;;;5010340;28;19949;-65
2022/04/13 00:21:04;;;;;;;;;;;14.40;99.90;;;;;;5011009;28;20391;-66
2022/04/13 00:23:31;;;;;;;;;;;14.40;99.90;;;;;;5010935;28;19906;-66
2022/04/13 00:25:57;;;;;;;;;;;14.40;99.90;;;;;;5003157;28;20368;-65
2022/04/13 00:28:23;;;;;;;;;;;14.40;99.90;;;;;;5011258;28;19914;-66
2022/04/13 00:30:49;;;;;;;;;;;14.40;99.90;;;;;;5011043;28;19983;-65
2022/04/13 00:33:14;;;;;;;;;;;14.50;99.90;;;;;;5011336;28;20331;-66
2022/04/13 00:35:40;;;;;;;;;;;14.30;99.90;;;;;;5010259;28;20055;-66
2022/04/13 00:38:05;;;;;;;;;;;14.30;99.90;;;;;;5011143;28;20000;-65
2022/04/13 00:40:31;;;;;;;;;;;14.30;99.90;;;;;;5011034;28;19909;-65
2022/04/13 00:42:56;;;;;;;;;;;14.30;99.90;;;;;;5010029;28;19916;-65
2022/04/13 00:45:22;;;;;;;;;;;14.30;99.90;;;;;;5011070;28;19948;-65
2022/04/13 00:47:47;;;;;;;;;;;14.30;99.90;;;;;;5011060;28;19912;-64
2022/04/13 00:50:13;;;;;;;;;;;14.20;99.90;;;;;;5010514;28;20420;-65
2022/04/13 00:52:41;;;;;;;;;;;14.20;99.90;;;;;;5009812;28;20686;-66
2022/04/13 00:55:07;;;;;;;;;;;14.20;99.90;;;;;;5010806;28;19916;-65
2022/04/13 00:57:34;;;;;;;;;;;14.20;99.90;;;;;;5010495;28;19936;-65
2022/04/13 01:00:00;;;;;;;;;;;14.10;99.90;;;;;;5009536;28;19987;-66
2022/04/13 01:02:27;;;;;;;;;;;14.10;99.90;;;;;;5010879;28;20349;-65
2022/04/13 01:04:53;;;;;;;;;;;14.00;99.90;;;;;;5010187;28;19995;-65
2022/04/13 01:07:18;;;;;;;;;;;14.00;99.90;;;;;;5010486;28;20015;-66
2022/04/13 01:09:44;;;;;;;;;;;13.90;99.90;;;;;;5009881;28;19956;-65
2022/04/13 01:12:09;;;;;;;;;;;13.90;99.90;;;;;;5010031;28;20004;-66
2022/04/13 01:14:35;;;;;;;;;;;13.80;99.90;;;;;;5010613;28;19905;-66
2022/04/13 01:17:01;;;;;;;;;;;13.80;99.90;;;;;;5010528;28;19909;-66
2022/04/13 01:19:27;;;;;;;;;;;13.70;99.90;;;;;;5009761;22;20397;-70
2022/04/13 01:21:53;;;;;;;;;;;14.60;99.90;;;;;;4980963;28;19938;-70
2022/04/13 01:24:19;;;;;;;;;;;13.60;99.90;;;;;;4990641;28;19905;-70
2022/04/13 01:26:45;;;;;;;;;;;13.60;99.90;;;;;;4986649;28;20044;-71
2022/04/13 01:29:11;;;;;;;;;;;13.50;99.90;;;;;;4990860;28;20373;-70
2022/04/13 01:31:37;;;;;;;;;;;13.50;99.90;;;;;;4990598;28;19944;-70
2022/04/13 01:34:03;;;;;;;;;;;13.40;99.90;;;;;;4990749;28;19953;-70
2022/04/13 01:36:29;;;;;;;;;;;13.40;99.90;;;;;;4974884;28;19925;-70
2022/04/13 01:38:54;;;;;;;;;;;13.40;99.90;;;;;;4971190;28;19921;-71
2022/04/13 01:41:20;;;;;;;;;;;13.30;99.90;;;;;;4971054;28;19933;-69
2022/04/13 01:43:45;;;;;;;;;;;13.40;99.90;;;;;;4972492;28;20373;-70
2022/04/13 01:46:11;;;;;;;;;;;13.30;99.90;;;;;;4990606;28;19949;-70
2022/04/13 01:48:36;;;;;;;;;;;13.30;99.90;;;;;;4990572;28;19910;-70
2022/04/13 01:51:02;;;;;;;;;;;13.30;99.90;;;;;;4981987;28;19910;-69
2022/04/13 01:53:27;;;;;;;;;;;13.40;99.90;;;;;;4971329;28;19910;-70
2022/04/13 01:55:57;;;;;;;;;;;13.30;99.90;;;;;;4971272;28;19906;-69
2022/04/13 01:58:23;;;;;;;;;;;13.30;99.90;;;;;;4971173;28;19917;-69
2022/04/13 02:00:53;;;;;;;;;;;12.90;99.90;;;;;;4976929;28;19909;-70
2022/04/13 02:03:23;;;;;;;;;;;13.30;99.90;;;;;;4990526;28;19906;-70
2022/04/13 02:05:50;;;;;;;;;;;13.30;99.90;;;;;;4989961;28;19909;-70
2022/04/13 02:08:15;;;;;;;;;;;13.30;99.90;;;;;;4986763;28;19945;-70
2022/04/13 02:10:41;;;;;;;;;;;13.30;99.90;;;;;;4970741;28;20389;-70
2022/04/13 02:13:06;;;;;;;;;;;13.20;99.90;;;;;;4978432;28;19929;-70
2022/04/13 02:15:32;;;;;;;;;;;13.20;99.90;;;;;;4990315;28;19932;-70
2022/04/13 02:17:57;;;;;;;;;;;13.20;99.90;;;;;;4985887;28;20313;-69
2022/04/13 02:20:23;;;;;;;;;;;13.20;99.90;;;;;;4988554;28;19913;-69
2022/04/13 02:22:49;;;;;;;;;;;13.20;99.90;;;;;;4990268;28;19925;-70
2022/04/13 02:25:14;;;;;;;;;;;13.10;99.90;;;;;;4997385;28;20338;-70
2022/04/13 02:27:40;;;;;;;;;;;13.10;99.90;;;;;;4993077;28;19909;-71
2022/04/13 02:30:06;;;;;;;;;;;13.00;99.90;;;;;;4994194;28;20305;-70
2022/04/13 02:32:31;;;;;;;;;;;13.10;99.90;;;;;;4994374;28;19980;-71
2022/04/13 02:34:57;;;;;;;;;;;13.10;99.90;;;;;;4993639;28;19924;-71
2022/04/13 02:37:22;;;;;;;;;;;13.10;99.90;;;;;;4993880;28;19917;-70
2022/04/13 02:39:48;;;;;;;;;;;13.00;99.90;;;;;;4993738;28;20455;-71
2022/04/13 02:42:15;;;;;;;;;;;13.00;99.90;;;;;;4992768;28;19955;-70
2022/04/13 02:44:43;;;;;;;;;;;13.10;99.90;;;;;;4993401;28;19945;-69
2022/04/13 02:47:08;;;;;;;;;;;12.90;99.90;;;;;;4994130;28;20003;-70
2022/04/13 02:49:34;;;;;;;;;;;12.90;99.90;;;;;;4993885;28;19952;-70
2022/04/13 02:51:59;;;;;;;;;;;12.80;99.90;;;;;;4992780;28;20373;-70
2022/04/13 02:54:25;;;;;;;0.10;0.10;;;12.80;99.90;;;;;;4993283;28;19916;-70
2022/04/13 02:56:50;;;;;;;0.00;0.00;;;12.80;99.90;;;;;;4993486;28;20042;-71
2022/04/13 02:59:16;;;;;;;0.10;0.10;;;12.80;99.90;;;;;;4993444;28;20031;-69
2022/04/13 03:01:44;;;;;;;0.00;0.00;;;12.80;99.90;;;;;;4978401;28;20023;-70
2022/04/13 03:04:10;;;;;;;0.10;0.10;;;12.80;99.90;;;;;;4973444;28;20034;-69
2022/04/13 03:06:38;;;;;;;0.10;0.10;;;12.70;99.90;;;;;;4973556;28;20019;-70
2022/04/13 03:09:04;;;;;;;0.10;0.10;;;12.70;99.90;;;;;;4983635;28;20030;-70
2022/04/13 03:11:30;;;;;;;0.10;0.10;;;12.70;99.90;;;;;;4992577;28;20069;-70
2022/04/13 03:13:56;;;;;;;0.10;0.10;;;12.70;99.90;;;;;;4984504;28;20097;-70
2022/04/13 03:16:22;;;;;;;0.10;0.10;;;12.70;99.90;;;;;;4969758;28;20030;-70
2022/04/13 03:18:48;;;;;;;0.10;0.10;;;12.60;99.90;;;;;;4973013;28;20070;-70
2022/04/13 03:21:14;;;;;;;0.10;0.10;;;12.60;99.90;;;;;;4979555;28;20092;-70
2022/04/13 03:23:40;;;;;;;0.10;0.10;;;12.50;99.90;;;;;;4992515;28;20106;-70
2022/04/13 03:26:06;;;;;;;0.10;0.10;;;12.40;99.90;;;;;;4992062;28;20419;-70
2022/04/13 03:28:31;;;;;;;0.28;0.28;;;12.50;99.90;;;;;;4992570;28;20493;-71
2022/04/13 03:30:57;;;;;;;0.10;0.10;;;12.40;99.90;;;;;;4992627;28;20109;-70
2022/04/13 03:33:23;;;;;;;0.20;0.20;;;12.40;99.90;;;;;;4992173;28;20035;-70
2022/04/13 03:35:49;;;;;;;0.10;0.10;;;12.40;99.90;;;;;;4992120;28;20077;-69
2022/04/13 03:38:14;;;;;;;0.10;0.10;;;12.30;99.90;;;;;;4992189;28;20026;-70
2022/04/13 03:40:40;;;;;;;0.10;0.10;;;12.30;99.90;;;;;;4992306;28;20093;-70
2022/04/13 03:43:06;;;;;;;0.75;0.73;;;12.20;99.90;;;;;;4991958;28;20473;-70
2022/04/13 03:45:31;;;;;;;0.10;0.10;;;12.20;99.90;;;;;;4992203;28;20069;-70
2022/04/13 03:47:57;;;;;;;0.10;0.10;;;12.20;99.90;;;;;;4992285;28;20516;-69
2022/04/13 03:50:23;;;;;;;0.10;0.10;;;12.20;99.90;;;;;;4974462;28;20022;-69
2022/04/13 03:52:48;;;;;;;0.10;0.10;;;12.20;99.90;;;;;;4980337;28;20117;-70
2022/04/13 03:55:14;;;;;;;0.05;0.05;;;12.20;99.90;;;;;;4972698;28;20394;-70
2022/04/13 03:57:39;;;;;;;0.10;0.10;;;12.10;99.90;;;;;;4972524;28;20485;-69
2022/04/13 04:00:08;;;;;;;0.10;0.10;;;12.10;99.90;;;;;;4972208;28;20561;-69
2022/04/13 04:02:38;;;;;;;0.10;0.10;;;12.00;99.90;;;;;;4985230;28;20117;-70
2022/04/13 04:05:04;;;;;;;0.00;0.00;;;12.00;99.90;;;;;;4991369;28;20454;-70
2022/04/13 04:07:30;;;;;;;0.10;0.10;;;12.00;99.90;;;;;;4991617;28;20514;-69
2022/04/13 04:09:55;;;;;;;0.10;0.10;;;12.00;99.90;;;;;;4987339;28;20027;-69
2022/04/13 04:12:21;;;;;;;1.55;1.02;;;12.00;99.90;;;;;;4987298;28;20030;-70
2022/04/13 04:14:47;;;;;;;0.05;0.05;;;12.00;99.90;;;;;;4991956;28;20085;-72
2022/04/13 04:17:13;;;;;;;0.10;0.10;;;12.00;99.90;;;;;;4992060;28;20030;-70
2022/04/13 04:19:38;;;;;;;0.52;0.52;;;12.00;99.90;;;;;;4991574;28;20037;-69
2022/04/13 04:22:04;;;;;;;0.10;0.10;;;12.00;99.90;;;;;;4972982;28;20041;-69
2022/04/13 04:24:30;;;;;;;0.10;0.10;;;12.00;99.90;;;;;;4991636;28;20022;-70
2022/04/13 04:26:57;;;;;;;0.10;0.10;;;12.00;99.90;;;;;;4991658;28;20105;-69
2022/04/13 04:29:23;;;;;;;0.10;0.10;;;11.90;99.90;;;;;;4991172;28;20034;-69
2022/04/13 04:31:49;;;;;;;0.10;0.10;;;12.00;99.90;;;;;;4990947;28;20556;-70
2022/04/13 04:34:16;;;;;;;0.10;0.10;;;12.00;99.90;;;;;;4991722;28;20058;-68
2022/04/13 04:36:42;;;;;;;0.10;0.10;;;12.00;99.90;;;;;;4991761;28;20164;-68
2022/04/13 04:39:08;;;;;;;0.10;0.10;;;11.90;99.90;;;;;;4969816;28;20130;-70
2022/04/13 04:41:34;;;;;;;0.10;0.10;;;11.90;99.90;;;;;;4971987;28;20022;-75
2022/04/13 04:44:00;;;;;;;0.10;0.10;;;12.20;99.90;;;;;;4971725;28;20023;-68
2022/04/13 04:46:26;;;;;;;0.22;0.22;;;12.00;99.90;;;;;;4956035;28;20023;-70
2022/04/13 04:48:52;;;;;;;0.10;0.10;;;12.00;99.90;;;;;;4971568;28;20039;-69
2022/04/13 04:51:18;;;;;;;0.10;0.10;;;11.90;99.90;;;;;;4970238;28;20383;-70
2022/04/13 04:53:44;;;;;;;2.47;2.28;;;12.00;99.90;;;;;;4972033;28;20030;-71
2022/04/13 04:56:10;;;;;;;0.10;0.10;;;12.00;99.90;;;;;;4977118;28;20512;-71
2022/04/13 04:58:35;;;;;;;0.10;0.10;;;12.00;99.90;;;;;;4991000;28;20050;-71
2022/04/13 05:01:01;;;;;;;0.10;0.10;;;12.00;99.90;;;;;;4990534;28;20049;-68
2022/04/13 05:03:27;;;;;;;0.08;0.08;;;12.10;99.90;;;;;;4990882;28;20438;-70
2022/04/13 05:05:52;;;;;;;0.10;0.10;;;12.10;99.90;;;;;;4985963;28;20101;-70
2022/04/13 05:08:18;;;;;;;0.10;0.10;;;12.10;99.90;;;;;;4968860;28;20390;-69
2022/04/13 05:10:50;;;;;;;0.10;0.10;;;12.10;99.90;;;;;;4990364;28;20077;-69
2022/04/13 05:13:19;;;;;;;0.47;0.47;;;12.20;99.90;;;;;;4990079;28;20058;-70
2022/04/13 05:15:45;;;;;;;0.10;0.10;;;12.30;99.90;;;;;;4990725;28;20034;-70
2022/04/13 05:18:12;;;;;;;0.10;0.10;;;12.20;99.90;;;;;;4990373;28;20445;-70
2022/04/13 05:20:38;;;;;;;0.10;0.10;;;12.20;99.90;;;;;;4989820;28;20034;-70
2022/04/13 05:23:04;;;;;;;0.10;0.10;;;12.30;99.90;;;;;;4990680;28;20026;-69
2022/04/13 05:25:29;;;;;;;0.45;0.45;;;12.30;99.90;;;;;;4990200;28;20026;-70
2022/04/13 05:27:55;;;;;;;0.00;0.00;;;12.30;99.90;;;;;;4990452;28;20033;-70
2022/04/13 05:30:21;;;;;;;0.32;0.32;;;12.30;99.90;;;;;;4989631;28;20500;-70
2022/04/13 05:32:58;;;;;;;0.10;0.10;;;12.30;99.90;;;;;;4990553;28;20026;-70
2022/04/13 05:35:28;;;;;;;0.17;0.17;;;12.30;99.90;;;;;;4990570;28;20022;-71
2022/04/13 05:37:57;;;;;;;1.55;0.80;;;12.30;99.90;;;;;;4990767;28;20038;-70
2022/04/13 05:40:24;;;;;;;0.10;0.10;;;12.30;99.90;;;;;;4989366;28;20030;-73
2022/04/13 05:42:50;;;;;;;0.10;0.10;;;12.40;99.90;;;;;;4990700;28;20030;-71
2022/04/13 05:45:17;;;;;;;0.10;0.10;;;12.40;99.90;;;;;;4990563;28;20514;-72
2022/04/13 05:47:43;;;;;;;0.20;0.20;;;12.50;99.90;;;;;;4990250;28;20026;-76
2022/04/13 05:50:10;;;;;;;0.10;0.10;;;12.50;99.90;;;;;;4989827;28;20069;-71
2022/04/13 05:52:36;;;;;;;0.47;0.47;;;12.60;99.90;;;;;;4980529;28;20023;-71
2022/04/13 05:55:02;;;;;;;0.10;0.10;;;12.60;99.90;;;;;;4970928;28;20034;-71
2022/04/13 05:57:28;;;;;;;0.10;0.10;;;12.60;99.90;;;;;;4970357;28;20125;-70
2022/04/13 05:59:53;;;;;;;0.30;0.30;;;12.60;99.90;;;;;;4982355;28;20027;-71
2022/04/13 06:02:20;;;;;;;0.10;0.10;;;12.70;99.90;;;;;;4983029;28;20051;-70
2022/04/13 06:04:45;;;;;;;0.00;0.00;;;12.70;99.90;;;;;;4989086;28;20030;-71
2022/04/13 06:07:11;;;;;;;0.10;0.10;;;12.80;99.90;;;;;;4987981;28;20030;-71
2022/04/13 06:09:37;;;;;;;0.10;0.10;;;12.80;99.90;;;;;;4970802;28;20041;-71
2022/04/13 06:12:03;;;;;;;0.10;0.10;;;12.80;99.90;;;;;;4970436;28;20030;-71
2022/04/13 06:14:28;;;;;;;0.10;0.10;;;12.90;99.90;;;;;;4989554;28;20031;-71
2022/04/13 06:16:54;;;;;;;0.10;0.10;;;12.90;99.90;;;;;;4989139;28;20084;-72
2022/04/13 06:19:20;;;;;;;0.10;0.10;;;12.90;99.90;;;;;;4989751;28;20034;-71
2022/04/13 06:21:45;;;;;;;0.10;0.10;;;13.00;99.90;;;;;;4989740;28;20027;-71
2022/04/13 06:24:11;;;;;;;0.10;0.10;;;13.10;99.90;;;;;;4989942;28;20034;-70
2022/04/13 06:26:37;;;;;;;2.63;2.15;;;13.20;99.90;;;;;;4989115;28;20034;-71
2022/04/13 06:29:03;;;;;;;2.35;0.88;;;13.20;99.90;;;;;;4989742;28;20310;-72
2022/04/13 06:31:29;;;;;;;0.10;0.10;;;13.30;99.90;;;;;;4989647;28;20053;-73
2022/04/13 06:33:55;;;;;;;0.08;0.08;;;13.40;99.90;;;;;;4969211;28;20490;-72
2022/04/13 06:36:20;;;;;;;0.10;0.10;;;13.50;99.90;;;;;;4976278;28;20496;-72
2022/04/13 06:38:46;;;;;;;0.10;0.10;;;13.60;99.90;;;;;;4989647;28;20026;-72
2022/04/13 06:41:12;;;;;;;0.10;0.10;;;13.70;99.90;;;;;;4983470;28;20026;-72
2022/04/13 06:43:39;;;;;;;0.08;0.08;;;13.80;99.90;;;;;;4970228;28;20037;-72
2022/04/13 06:46:05;;;;;;;0.10;0.10;;;13.80;99.90;;;;;;4970315;28;20027;-71
2022/04/13 06:48:31;;;;;;;0.10;0.10;;;13.80;99.90;;;;;;4970317;28;20035;-73
2022/04/13 06:50:57;;;;;;;0.22;0.22;;;13.80;99.90;;;;;;4969666;28;20042;-71
2022/04/13 06:53:24;;;;;;;0.10;0.10;;;14.00;99.90;;;;;;4970047;28;20038;-71
2022/04/13 06:55:49;;;;;;;0.10;0.10;;;14.10;99.90;;;;;;4989127;28;20034;-71
2022/04/13 06:58:19;;;;;;;0.30;0.30;;;14.30;99.90;;;;;;4987073;28;20026;-71
2022/04/13 07:00:45;;;;;;;0.03;0.03;;;14.30;99.90;;;;;;4988355;28;20049;-72
2022/04/13 07:03:11;;;;;;;0.10;0.10;;;14.20;99.90;;;;;;4989480;28;20018;-72
2022/04/13 07:05:37;;;;;;;0.00;0.00;;;14.20;99.90;;;;;;4988887;28;20521;-71
2022/04/13 07:08:04;;;;;;;0.00;0.00;;;14.30;99.90;;;;;;4989648;28;20038;-71
2022/04/13 07:10:30;;;;;;;0.45;0.45;;;14.30;99.90;;;;;;4970050;28;20039;-71
2022/04/13 07:12:57;;;;;;;0.10;0.10;;;14.50;99.90;;;;;;4980056;28;20054;-71
2022/04/13 07:15:23;;;;;;;0.10;0.10;;;14.60;99.90;;;;;;5000477;28;20029;-72
2022/04/13 07:17:49;;;;;;;0.00;0.00;;;14.60;99.90;;;;;;4986540;28;20038;-70
2022/04/13 07:20:16;;;;;;;0.10;0.10;;;14.70;99.90;;;;;;4972943;28;20046;-72
2022/04/13 07:22:46;;;;;;;0.00;0.00;;;14.70;99.90;;;;;;4973484;28;20102;-73
2022/04/13 07:25:13;;;;;;;0.28;0.28;;;14.80;99.90;;;;;;4989817;28;20028;-71
2022/04/13 07:27:39;;;;;;;0.10;0.10;;;14.80;99.90;;;;;;4968236;28;20458;-73
2022/04/13 07:30:06;;;;;;;0.10;0.10;;;15.30;99.90;;;;;;4990939;28;20271;-74
2022/04/13 07:32:31;;;;;;;0.10;0.10;;;14.90;99.90;;;;;;4992596;28;20066;-72
2022/04/13 07:34:59;;;;;;;0.65;0.65;;;15.10;99.90;;;;;;4992399;28;20060;-74
2022/04/13 07:37:25;;;;;;;0.10;0.10;;;15.20;99.90;;;;;;4992006;28;20026;-73
2022/04/13 07:39:51;;;;;;;0.00;0.00;;;15.30;99.90;;;;;;4990023;28;20121;-73
2022/04/13 07:42:21;;;;;;;0.10;0.10;;;15.40;99.90;;;;;;4992692;28;20022;-73
2022/04/13 07:44:46;;;;;;;0.10;0.10;;;15.50;99.90;;;;;;4966661;28;20058;-70
2022/04/13 07:47:14;;;;;;;0.10;0.10;;;15.60;99.90;;;;;;4988918;28;20034;-73
2022/04/13 07:49:41;;;;;;;3.40;1.55;;;15.70;99.90;;;;;;4984131;28;20035;-73
2022/04/13 07:52:07;;;;;;;0.32;0.32;;;15.80;99.90;;;;;;4984266;28;20053;-75
2022/04/13 07:54:33;;;;;;;0.20;0.20;;;15.80;99.90;;;;;;4990660;28;20046;-74
2022/04/13 07:56:59;;;;;;;0.00;0.00;;;15.90;99.90;;;;;;4997450;28;20176;-74
2022/04/13 07:59:24;;;;;;;0.52;0.52;;;16.00;99.90;;;;;;5000847;28;20501;-73
2022/04/13 08:01:50;;;;;;;0.00;0.00;;;16.10;99.90;;;;;;4995331;28;20030;-73
2022/04/13 08:04:16;;;;;;;0.10;0.10;;;16.20;99.90;;;;;;4999360;28;20493;-73
2022/04/13 08:06:41;;;;;;;0.20;0.20;;;16.40;99.90;;;;;;4997599;28;20116;-75
2022/04/13 08:09:07;;;;;;;0.10;0.10;;;16.50;99.90;;;;;;4991635;28;20184;-72
2022/04/13 08:11:33;;;;;;;0.10;0.10;;;16.50;99.90;;;;;;4958548;28;20511;-72
2022/04/13 08:13:58;;;;;;;0.05;0.05;;;16.70;99.90;;;;;;4985360;28;20030;-73
2022/04/13 08:16:24;;;;;;;0.10;0.10;;;16.70;99.90;;;;;;4989663;28;20030;-73
2022/04/13 08:18:49;;;;;;;0.00;0.00;;;16.80;99.90;;;;;;4989981;28;20034;-73
2022/04/13 08:21:15;;;;;;;0.00;0.00;;;16.90;99.90;;;;;;4989845;28;20022;-72
2022/04/13 08:23:41;;;;;;;0.00;0.00;;;16.90;99.90;;;;;;4988940;28;20085;-75
2022/04/13 08:26:06;;;;;;;0.10;0.10;;;17.10;99.90;;;;;;4990561;28;20030;-74
2022/04/13 08:28:32;;;;;;;0.10;0.10;;;17.20;99.90;;;;;;4989342;28;20026;-74
2022/04/13 08:30:58;;;;;;;0.03;0.03;;;17.30;99.90;;;;;;4989777;28;20625;-73
2022/04/13 08:33:24;;;;;;;0.00;0.00;;;17.40;99.90;;;;;;4989519;28;20081;-73
2022/04/13 08:35:50;;;;;;;0.63;0.63;;;17.50;99.90;;;;;;4989211;28;20201;-76
2022/04/13 08:38:16;;;;;;;0.57;0.57;;;17.60;99.90;;;;;;4980145;28;20564;-73
2022/04/13 08:41:10;;;;;;;0.03;0.03;;;17.70;99.90;;;;;;4969532;28;20391;-75
2022/04/13 08:43:47;;;;;;;0.15;0.15;;;17.70;99.90;;;;;;4962226;28;20109;-74
2022/04/13 08:46:21;;;;;;;0.00;0.00;;;17.80;99.90;;;;;;4975750;28;20022;-74
2022/04/13 08:48:50;;;;;;;0.55;0.55;;;17.90;99.90;;;;;;4988321;28;20026;-74
2022/04/13 08:51:18;;;;;;;0.10;0.10;;;18.00;99.90;;;;;;4982608;28;20097;-72
2022/04/13 08:53:47;;;;;;;0.00;0.00;;;18.00;99.90;;;;;;4988846;28;20030;-73
2022/04/13 08:56:17;;;;;;;0.00;0.00;;;18.10;99.90;;;;;;4988061;28;20026;-73
2022/04/13 08:58:57;;;;;;;0.00;0.00;;;18.20;99.90;;;;;;4988619;28;20406;-74
2022/04/13 09:01:34;;;;;;;0.00;0.00;;;18.40;99.90;;;;;;4988325;28;20054;-75
2022/04/13 09:04:07;;;;;;;0.00;0.00;;;18.50;99.90;;;;;;4988795;28;20089;-73
2022/04/13 09:06:33;;;;;;;0.03;0.03;;;18.50;99.90;;;;;;4969570;28;20023;-73
2022/04/13 09:09:02;;;;;;;0.00;0.00;;;18.60;99.90;;;;;;4968893;28;20050;-74
2022/04/13 09:11:28;;;;;;;0.20;0.20;;;18.60;99.90;;;;;;4968617;28;20026;-72
2022/04/13 09:13:54;;;;;;;0.20;0.20;;;18.80;99.90;;;;;;4976209;28;20022;-73
2022/04/13 09:16:19;;;;;;;0.00;0.00;;;19.00;98.90;;;;;;4987419;28;20048;-73
2022/04/13 09:18:46;;;;;;;0.00;0.00;;;19.10;98.90;;;;;;4987831;28;20097;-73
2022/04/13 09:21:20;;;;;;;0.00;0.00;;;19.30;95.20;;;;;;4987971;28;20022;-73
2022/04/13 09:23:46;;;;;;;0.17;0.17;;;19.30;94.30;;;;;;4988720;28;20034;-72
2022/04/13 09:26:14;;;;;;;0.00;0.00;;;19.50;92.50;;;;;;4990198;28;20023;-72
2022/04/13 09:28:41;;;;;;;0.10;0.10;;;19.50;91.30;;;;;;4990187;28;20106;-73
2022/04/13 09:31:07;;;;;;;0.00;0.00;;;19.60;90.90;;;;;;4989760;28;20026;-72
2022/04/13 09:33:33;;;;;;;0.55;0.55;;;19.60;91.20;;;;;;4990102;28;20038;-73
2022/04/13 09:35:59;;;;;;;0.00;0.00;;;19.80;91.10;;;;;;4990381;28;20034;-73
2022/04/13 09:38:26;;;;;;;0.00;0.00;;;19.90;90.30;;;;;;4990524;28;20037;-75
2022/04/13 09:40:52;;;;;;;0.00;0.00;;;20.00;87.90;;;;;;4990195;28;20056;-73
2022/04/13 09:43:19;;;;;;;0.00;0.00;;;20.00;85.90;;;;;;4971919;28;20058;-73
2022/04/13 09:45:47;;;;;;;0.00;0.00;;;20.00;86.10;;;;;;4990163;28;20023;-73
2022/04/13 09:48:15;;;;;;;0.30;0.30;;;20.10;83.50;;;;;;4986214;28;20026;-72
2022/04/13 09:50:44;;;;;;;0.08;0.08;;;20.10;84.50;;;;;;4981118;28;20066;-74
2022/04/13 09:53:11;;;;;;;0.00;0.00;;;20.10;84.20;;;;;;4971024;28;20368;-75
2022/04/13 09:55:38;;;;;;;0.00;0.00;;;20.20;84.60;;;;;;4970820;28;20562;-73
2022/04/13 09:58:06;;;;;;;0.00;0.00;;;20.30;81.60;;;;;;4970575;28;20026;-72
2022/04/13 10:00:33;;;;;;;0.00;0.00;;;20.40;80.10;;;;;;4986226;28;20023;-71
2022/04/13 10:03:10;;;;;;;0.10;0.10;;;20.40;77.00;;;;;;4989931;28;20470;-74
2022/04/13 10:05:36;;;;;;;0.10;0.10;;;20.50;76.50;;;;;;4989814;28;20122;-72
2022/04/13 10:08:06;;;;;;;0.00;0.00;;;20.60;74.00;;;;;;4989840;28;20080;-73
2022/04/13 10:10:32;;;;;;;0.00;0.00;;;20.80;73.70;;;;;;4990604;28;20022;-73
2022/04/13 10:12:58;;;;;;;0.10;0.10;;;20.80;71.60;;;;;;4989618;28;20033;-72
2022/04/13 10:15:24;;;;;;;0.00;0.00;;;20.90;69.70;;;;;;4989288;28;20370;-74
2022/04/13 10:17:49;;;;;;;0.00;0.00;;;21.00;72.00;;;;;;4989526;28;20091;-73
2022/04/13 10:20:15;;;;;;;0.00;0.00;;;21.20;69.80;;;;;;4989337;28;20482;-72
2022/04/13 10:23:01;;;;;;;1.00;1.00;;;21.00;70.30;;;;;;4989866;28;20605;-73
2022/04/13 10:25:28;;;;;;;0.00;0.00;;;20.90;69.20;;;;;;4990119;28;20045;-76
2022/04/13 10:27:58;;;;;;;0.10;0.10;;;20.90;71.00;;;;;;4989683;28;20026;-76
2022/04/13 10:30:32;;;;;;;0.00;0.00;;;21.00;73.00;;;;;;4990021;28;20052;-76
2022/04/13 10:33:18;;;;;;;0.00;0.00;;;21.00;72.50;;;;;;4990178;28;20030;-73
2022/04/13 10:35:45;;;;;;;0.00;0.00;;;21.10;74.30;;;;;;4986621;28;20042;-77
2022/04/13 10:38:14;;;;;;;0.00;0.00;;;21.20;76.50;;;;;;4971794;28;20038;-74
2022/04/13 10:40:42;;;;;;;0.00;0.00;;;21.30;76.20;;;;;;4981764;28;20065;-77
2022/04/13 10:43:11;;;;;;;0.00;0.00;;;21.30;75.00;;;;;;4989202;28;20029;-73
2022/04/13 10:45:39;;;;;;;0.00;0.00;;;21.40;75.70;;;;;;4991181;28;20064;-74
2022/04/13 10:48:07;;;;;;;0.00;0.00;;;21.50;74.90;;;;;;4995093;28;20026;-73
2022/04/13 10:50:44;;;;;;;0.10;0.10;;;21.60;75.20;;;;;;4999019;28;20537;-73
2022/04/13 10:53:22;;;;;;;0.00;0.00;;;21.70;75.10;;;;;;5003934;28;20030;-74
2022/04/13 10:56:02;;;;;;;0.10;0.10;;;21.80;74.40;;;;;;5003323;28;20033;-75
2022/04/13 10:58:59;;;;;;;0.05;0.05;;;21.90;75.10;;;;;;5002770;28;20029;-76
2022/04/13 11:01:29;;;;;;;0.00;0.00;;;21.90;74.10;;;;;;5002519;28;20076;-75
2022/04/13 11:03:55;;;;;;;0.00;0.00;;;22.00;72.70;;;;;;4999944;28;20053;-75
2022/04/13 11:06:22;;;;;;;0.00;0.00;;;22.10;73.80;;;;;;5003854;28;20029;-75
2022/04/13 11:09:03;;;;;;;0.00;0.00;;;22.00;73.60;;;;;;5001858;28;20029;-75
2022/04/13 11:11:31;;;;;;;0.00;0.00;;;22.00;72.90;;;;;;5002593;28;20615;-77
2022/04/13 11:13:57;;;;;;;0.00;0.00;;;22.10;72.10;;;;;;5000315;28;20091;-74
2022/04/13 11:16:24;;;;;;;0.00;0.00;;;22.10;71.40;;;;;;5002312;28;20420;-76
2022/04/13 11:19:05;;;;;;;0.00;0.00;;;22.20;71.20;;;;;;4985562;28;20112;-73
2022/04/13 11:21:53;;;;;;;0.05;0.05;;;22.30;71.20;;;;;;5000166;28;20030;-74
2022/04/13 11:24:42;;;;;;;0.00;0.00;;;22.30;69.30;;;;;;5000618;28;20026;-74
2022/04/13 11:27:10;;;;;;;0.00;0.00;;;22.40;70.10;;;;;;5000874;28;20017;-75
2022/04/13 11:29:38;;;;;;;0.00;0.00;;;22.60;67.00;;;;;;5001698;28;20018;-78
2022/04/13 11:32:06;;;;;;;0.00;0.00;;;22.60;66.80;;;;;;4997050;28;20049;-73
2022/04/13 11:34:40;;;;;;;0.20;0.20;;;22.50;66.40;;;;;;4991878;28;20133;-74
2022/04/13 11:37:20;;;;;;;0.00;0.00;;;22.40;66.10;;;;;;4992745;28;20028;-74
2022/04/13 11:39:48;;;;;;;0.45;0.45;;;22.40;65.00;;;;;;4987836;28;20027;-74
2022/04/13 11:42:40;;;;;;;0.20;0.20;;;22.40;64.00;;;;;;4987956;28;20025;-74
2022/04/13 11:45:08;;;;;;;0.00;0.00;;;22.50;64.30;;;;;;4992662;28;20025;-75
2022/04/13 11:47:40;;;;;;;0.00;0.00;;;22.40;63.50;;;;;;4992207;28;20026;-74
2022/04/13 11:50:17;;;;;;;0.00;0.00;;;22.40;63.30;;;;;;4991957;28;20113;-74
2022/04/13 11:52:51;;;;;;;0.00;0.00;;;22.50;63.40;;;;;;4992546;28;20030;-76
2022/04/13 11:55:23;;;;;;;0.00;0.00;;;22.60;62.60;;;;;;4992569;28;20105;-74
2022/04/13 11:58:20;;;;;;;0.10;0.10;;;22.70;62.50;;;;;;4991328;28;20026;-72
2022/04/13 12:01:08;;;;;;;0.00;0.00;;;22.70;61.70;;;;;;4992210;28;20029;-73
2022/04/13 12:03:40;;;;;;;0.00;0.00;;;22.80;62.50;;;;;;4992653;28;20025;-74
2022/04/13 12:06:15;;;;;;;0.00;0.00;;;22.70;60.40;;;;;;4991334;28;20043;-73
2022/04/13 12:08:43;;;;;;;0.00;0.00;;;22.60;61.20;;;;;;4992541;28;20108;-74
2022/04/13 12:11:17;;;;;;;0.00;0.00;;;22.70;60.50;;;;;;4991818;28;20081;-74
2022/04/13 12:13:58;;;;;;;0.00;0.00;;;22.90;60.70;;;;;;4992243;28;20030;-74
2022/04/13 12:16:29;;;;;;;0.00;0.00;;;23.00;60.00;;;;;;4991712;28;20474;-72
2022/04/13 12:19:04;;;;;;;0.00;0.00;;;23.10;60.30;;;;;;4991983;28;20037;-73
2022/04/13 12:21:31;;;;;;;0.00;0.00;;;23.20;59.30;;;;;;4991914;28;20022;-76
2022/04/13 12:24:00;;;;;;;0.00;0.00;;;23.30;58.90;;;;;;4977906;28;20486;-73
2022/04/13 12:26:33;;;;;;;0.00;0.00;;;23.30;57.60;;;;;;4980948;28;20085;-73
2022/04/13 12:29:00;;;;;;;0.00;0.00;;;23.30;57.50;;;;;;4974789;28;20035;-72
2022/04/13 12:31:27;;;;;;;4.28;2.55;;;23.40;57.40;;;;;;4973329;28;20113;-72
2022/04/13 12:33:58;;;;;;;0.00;0.00;;;23.40;57.50;;;;;;4992094;28;20026;-73
2022/04/13 12:36:23;;;;;;;0.00;0.00;;;23.50;58.30;;;;;;4991904;28;20026;-73
2022/04/13 12:38:57;;;;;;;0.00;0.00;;;23.70;57.70;;;;;;4991734;28;20022;-74
2022/04/13 12:41:24;;;;;;;0.00;0.00;;;24.00;57.30;;;;;;4991301;28;20058;-72
2022/04/13 12:43:59;;;;;;;0.00;0.00;;;24.90;56.00;;;;;;4992183;28;20029;-73
2022/04/13 12:46:27;;;;;;;0.00;0.00;;;26.30;54.70;;;;;;4991937;28;20030;-74
2022/04/13 12:49:02;;;;;;;0.00;0.00;;;27.00;51.80;;;;;;4992009;28;20494;-75
2022/04/13 12:51:32;;;;;;;0.00;0.00;;;27.60;49.90;;;;;;4990703;28;20038;-73
2022/04/13 12:53:59;;;;;;;;;;;27.20;50.00;;;;;;4991917;28;20050;-74
2022/04/13 12:56:28;;;;;;;;;;;27.30;50.10;;;;;;4992153;28;19906;-73
2022/04/13 12:58:55;;;;;;;;;;;28.30;48.60;;;;;;4991077;28;19917;-72
2022/04/13 13:01:21;;;;;;;;;;;28.80;48.10;;;;;;4991671;28;19976;-73
2022/04/13 13:03:46;;;;;;;;;;;29.20;46.70;;;;;;4991995;28;19952;-73
2022/04/13 13:06:13;;;;;;;0.30;0.30;;;29.20;46.20;;;;;;4990909;28;20516;-76
2022/04/13 13:09:02;;;;;;;0.00;0.00;;;29.50;45.90;;;;;;4977642;28;20083;-75
2022/04/13 13:11:30;;;;;;;0.00;0.00;;;30.00;45.10;;;;;;4971547;28;20050;-75